sensor_id;sensor_type;location;lat;lon;timestamp;pressure;altitude;pressure_sealevel;temperature;humidity
71573;BME280;59408;51.032;9.410;2023-04-07T00:00:36;99042.13;;;4.93;96.48
71573;BME280;59408;51.032;9.410;2023-04-07T00:03:02;99040.53;;;4.92;95.54
71573;BME280;59408;51.032;9.410;2023-04-07T00:05:29;99042.44;;;4.91;95.76
71573;BME280;59408;51.032;9.410;2023-04-07T00:07:56;99035.44;;;4.90;96.53
71573;BME280;59408;51.032;9.410;2023-04-07T00:10:24;99033.03;;;4.89;96.79
71573;BME280;59408;51.032;9.410;2023-04-07T00:12:51;99036.84;;;4.88;95.39
71573;BME280;59408;51.032;9.410;2023-04-07T00:15:18;99031.94;;;4.90;94.18
71573;BME280;59408;51.032;9.410;2023-04-07T00:17:44;99032.22;;;4.88;95.01
71573;BME280;59408;51.032;9.410;2023-04-07T00:20:11;99037.91;;;4.87;95.33
71573;BME280;59408;51.032;9.410;2023-04-07T00:22:38;99037.09;;;4.86;95.47
71573;BME280;59408;51.032;9.410;2023-04-07T00:25:06;99028.72;;;4.88;95.35
71573;BME280;59408;51.032;9.410;2023-04-07T00:27:34;99031.44;;;4.88;95.42
71573;BME280;59408;51.032;9.410;2023-04-07T00:30:00;99023.59;;;4.86;94.41
71573;BME280;59408;51.032;9.410;2023-04-07T00:32:27;99025.59;;;4.81;95.08
71573;BME280;59408;51.032;9.410;2023-04-07T00:34:54;99019.41;;;4.80;96.63
71573;BME280;59408;51.032;9.410;2023-04-07T00:37:20;99024.59;;;4.77;97.25
71573;BME280;59408;51.032;9.410;2023-04-07T00:39:47;99016.78;;;4.75;96.60
71573;BME280;59408;51.032;9.410;2023-04-07T00:42:13;99013.59;;;4.73;96.10
71573;BME280;59408;51.032;9.410;2023-04-07T00:44:41;99006.59;;;4.72;97.13
71573;BME280;59408;51.032;9.410;2023-04-07T00:47:08;99008.00;;;4.70;97.19
71573;BME280;59408;51.032;9.410;2023-04-07T00:49:36;99009.09;;;4.69;97.44
71573;BME280;59408;51.032;9.410;2023-04-07T00:52:03;99006.16;;;4.65;98.18
71573;BME280;59408;51.032;9.410;2023-04-07T00:54:30;99001.91;;;4.64;96.06
71573;BME280;59408;51.032;9.410;2023-04-07T00:56:57;98991.38;;;4.62;98.37
71573;BME280;59408;51.032;9.410;2023-04-07T00:59:24;98993.59;;;4.60;97.80
71573;BME280;59408;51.032;9.410;2023-04-07T01:01:58;98992.56;;;4.56;97.52
71573;BME280;59408;51.032;9.410;2023-04-07T01:04:31;98988.59;;;4.54;97.78
71573;BME280;59408;51.032;9.410;2023-04-07T01:07:03;98988.06;;;4.52;98.48
71573;BME280;59408;51.032;9.410;2023-04-07T01:09:36;98980.56;;;4.49;99.52
71573;BME280;59408;51.032;9.410;2023-04-07T01:12:11;98986.25;;;4.47;99.67
71573;BME280;59408;51.032;9.410;2023-04-07T01:14:46;98978.16;;;4.47;100.00
71573;BME280;59408;51.032;9.410;2023-04-07T01:17:18;98980.69;;;4.44;100.00
71573;BME280;59408;51.032;9.410;2023-04-07T01:19:52;98979.06;;;4.43;100.00
71573;BME280;59408;51.032;9.410;2023-04-07T01:22:24;98982.06;;;4.41;100.00
71573;BME280;59408;51.032;9.410;2023-04-07T01:25:05;98976.38;;;4.43;100.00
71573;BME280;59408;51.032;9.410;2023-04-07T01:27:42;98979.97;;;4.38;100.00
71573;BME280;59408;51.032;9.410;2023-04-07T01:30:16;98978.88;;;4.39;100.00
71573;BME280;59408;51.032;9.410;2023-04-07T01:32:46;98977.25;;;4.38;100.00
71573;BME280;59408;51.032;9.410;2023-04-07T01:35:17;98976.78;;;4.36;100.00
71573;BME280;59408;51.032;9.410;2023-04-07T01:37:45;98973.88;;;4.33;100.00
71573;BME280;59408;51.032;9.410;2023-04-07T01:40:13;98966.56;;;4.33;100.00
71573;BME280;59408;51.032;9.410;2023-04-07T01:42:41;98968.75;;;4.31;100.00
71573;BME280;59408;51.032;9.410;2023-04-07T01:45:09;98964.44;;;4.30;100.00
71573;BME280;59408;51.032;9.410;2023-04-07T01:47:38;98967.78;;;4.27;100.00
71573;BME280;59408;51.032;9.410;2023-04-07T01:50:06;98965.88;;;4.28;100.00
71573;BME280;59408;51.032;9.410;2023-04-07T01:52:34;98978.56;;;4.27;100.00
71573;BME280;59408;51.032;9.410;2023-04-07T01:55:01;98961.88;;;4.25;100.00
71573;BME280;59408;51.032;9.410;2023-04-07T01:57:28;98961.34;;;4.23;100.00
71573;BME280;59408;51.032;9.410;2023-04-07T01:59:55;98954.56;;;4.25;100.00
71573;BME280;59408;51.032;9.410;2023-04-07T02:02:21;98951.66;;;4.22;100.00
71573;BME280;59408;51.032;9.410;2023-04-07T02:04:54;98950.84;;;4.21;100.00
71573;BME280;59408;51.032;9.410;2023-04-07T02:07:25;98953.25;;;4.23;100.00
71573;BME280;59408;51.032;9.410;2023-04-07T02:09:55;98952.97;;;4.24;100.00
71573;BME280;59408;51.032;9.410;2023-04-07T02:12:25;98948.44;;;4.20;100.00
71573;BME280;59408;51.032;9.410;2023-04-07T02:14:52;98951.47;;;4.18;100.00
71573;BME280;59408;51.032;9.410;2023-04-07T02:17:20;98945.56;;;4.16;100.00
71573;BME280;59408;51.032;9.410;2023-04-07T02:19:50;98943.16;;;4.15;100.00
71573;BME280;59408;51.032;9.410;2023-04-07T02:22:18;98946.16;;;4.13;100.00
71573;BME280;59408;51.032;9.410;2023-04-07T02:24:44;98938.34;;;4.12;100.00
71573;BME280;59408;51.032;9.410;2023-04-07T02:27:11;98939.16;;;4.12;100.00
71573;BME280;59408;51.032;9.410;2023-04-07T02:29:38;98937.25;;;4.13;100.00
71573;BME280;59408;51.032;9.410;2023-04-07T02:32:04;98938.06;;;4.13;100.00
71573;BME280;59408;51.032;9.410;2023-04-07T02:34:31;98946.44;;;4.12;100.00
71573;BME280;59408;51.032;9.410;2023-04-07T02:36:59;98938.63;;;4.10;100.00
71573;BME280;59408;51.032;9.410;2023-04-07T02:39:26;98938.97;;;4.09;100.00
71573;BME280;59408;51.032;9.410;2023-04-07T02:41:53;98941.16;;;4.07;100.00
71573;BME280;59408;51.032;9.410;2023-04-07T02:44:19;98941.97;;;4.07;100.00
71573;BME280;59408;51.032;9.410;2023-04-07T02:46:46;98935.75;;;4.07;100.00
71573;BME280;59408;51.032;9.410;2023-04-07T02:49:12;98939.56;;;4.06;100.00
71573;BME280;59408;51.032;9.410;2023-04-07T02:51:39;98940.94;;;4.03;100.00
71573;BME280;59408;51.032;9.410;2023-04-07T02:54:07;98941.22;;;4.02;100.00
71573;BME280;59408;51.032;9.410;2023-04-07T02:56:34;98933.13;;;4.02;100.00
71573;BME280;59408;51.032;9.410;2023-04-07T02:59:00;98932.34;;;4.01;100.00
71573;BME280;59408;51.032;9.410;2023-04-07T03:01:27;98936.16;;;4.00;100.00
71573;BME280;59408;51.032;9.410;2023-04-07T03:03:54;98930.75;;;4.00;100.00
71573;BME280;59408;51.032;9.410;2023-04-07T03:06:21;98931.84;;;3.99;100.00
71573;BME280;59408;51.032;9.410;2023-04-07T03:08:48;98934.56;;;3.99;100.00
71573;BME280;59408;51.032;9.410;2023-04-07T03:11:16;98934.03;;;3.97;100.00
71573;BME280;59408;51.032;9.410;2023-04-07T03:13:42;98934.84;;;3.98;100.00
71573;BME280;59408;51.032;9.410;2023-04-07T03:16:09;98923.25;;;3.97;100.00
71573;BME280;59408;51.032;9.410;2023-04-07T03:18:35;98925.94;;;3.97;100.00
71573;BME280;59408;51.032;9.410;2023-04-07T03:21:02;98923.75;;;3.99;100.00
71573;BME280;59408;51.032;9.410;2023-04-07T03:23:28;98930.03;;;3.95;100.00
71573;BME280;59408;51.032;9.410;2023-04-07T03:25:55;98919.84;;;3.92;100.00
71573;BME280;59408;51.032;9.410;2023-04-07T03:28:24;98916.84;;;3.93;100.00
71573;BME280;59408;51.032;9.410;2023-04-07T03:30:50;98920.63;;;3.92;100.00
71573;BME280;59408;51.032;9.410;2023-04-07T03:33:17;98920.63;;;3.92;100.00
71573;BME280;59408;51.032;9.410;2023-04-07T03:35:43;98912.06;;;3.90;100.00
71573;BME280;59408;51.032;9.410;2023-04-07T03:38:10;98918.53;;;3.89;100.00
71573;BME280;59408;51.032;9.410;2023-04-07T03:40:37;98915.03;;;3.88;100.00
71573;BME280;59408;51.032;9.410;2023-04-07T03:43:03;98906.72;;;3.85;100.00
71573;BME280;59408;51.032;9.410;2023-04-07T03:45:33;98914.81;;;3.85;100.00
71573;BME280;59408;51.032;9.410;2023-04-07T03:48:00;98915.91;;;3.84;100.00
71573;BME280;59408;51.032;9.410;2023-04-07T03:50:27;98903.84;;;3.81;100.00
71573;BME280;59408;51.032;9.410;2023-04-07T03:52:53;98915.72;;;3.80;100.00
71573;BME280;59408;51.032;9.410;2023-04-07T03:55:21;98911.44;;;3.79;100.00
71573;BME280;59408;51.032;9.410;2023-04-07T03:57:47;98911.44;;;3.79;100.00
71573;BME280;59408;51.032;9.410;2023-04-07T04:00:14;98914.94;;;3.80;100.00
71573;BME280;59408;51.032;9.410;2023-04-07T04:02:42;98907.13;;;3.78;100.00
71573;BME280;59408;51.032;9.410;2023-04-07T04:05:09;98912.00;;;3.76;100.00
71573;BME280;59408;51.032;9.410;2023-04-07T04:07:35;98913.31;;;3.79;100.00
71573;BME280;59408;51.032;9.410;2023-04-07T04:10:02;98911.72;;;3.78;100.00
71573;BME280;59408;51.032;9.410;2023-04-07T04:12:29;98923.31;;;3.78;100.00
71573;BME280;59408;51.032;9.410;2023-04-07T04:14:55;98920.91;;;3.77;100.00
71573;BME280;59408;51.032;9.410;2023-04-07T04:17:22;98920.09;;;3.76;100.00
71573;BME280;59408;51.032;9.410;2023-04-07T04:19:50;98922.00;;;3.76;100.00
71573;BME280;59408;51.032;9.410;2023-04-07T04:22:17;98922.81;;;3.76;100.00
71573;BME280;59408;51.032;9.410;2023-04-07T04:24:43;98920.41;;;3.75;100.00
71573;BME280;59408;51.032;9.410;2023-04-07T04:27:10;98923.09;;;3.75;100.00
71573;BME280;59408;51.032;9.410;2023-04-07T04:29:37;98916.09;;;3.74;100.00
71573;BME280;59408;51.032;9.410;2023-04-07T04:32:04;98914.53;;;3.73;100.00
71573;BME280;59408;51.032;9.410;2023-04-07T04:34:30;98917.22;;;3.73;100.00
71573;BME280;59408;51.032;9.410;2023-04-07T04:36:58;98928.31;;;3.71;100.00
71573;BME280;59408;51.032;9.410;2023-04-07T04:39:25;98921.31;;;3.70;100.00
71573;BME280;59408;51.032;9.410;2023-04-07T04:41:51;98916.72;;;3.71;100.00
71573;BME280;59408;51.032;9.410;2023-04-07T04:44:18;98918.59;;;3.70;100.00
71573;BME280;59408;51.032;9.410;2023-04-07T04:46:45;98922.09;;;3.71;100.00
71573;BME280;59408;51.032;9.410;2023-04-07T04:49:11;98923.72;;;3.72;100.00
71573;BME280;59408;51.032;9.410;2023-04-07T04:51:38;98931.00;;;3.71;100.00
71573;BME280;59408;51.032;9.410;2023-04-07T04:54:06;98934.50;;;3.72;100.00
71573;BME280;59408;51.032;9.410;2023-04-07T04:56:33;98934.50;;;3.72;100.00
71573;BME280;59408;51.032;9.410;2023-04-07T04:58:59;98921.81;;;3.72;100.00
71573;BME280;59408;51.032;9.410;2023-04-07T05:01:26;98926.59;;;3.75;100.00
71573;BME280;59408;51.032;9.410;2023-04-07T05:03:53;98929.00;;;3.77;100.00
71573;BME280;59408;51.032;9.410;2023-04-07T05:06:20;98925.22;;;3.78;100.00
71573;BME280;59408;51.032;9.410;2023-04-07T05:08:47;98931.31;;;3.83;100.00
71573;BME280;59408;51.032;9.410;2023-04-07T05:11:15;98930.72;;;3.86;100.00
71573;BME280;59408;51.032;9.410;2023-04-07T05:13:41;98932.31;;;3.87;100.00
71573;BME280;59408;51.032;9.410;2023-04-07T05:16:08;98939.31;;;3.88;100.00
71573;BME280;59408;51.032;9.410;2023-04-07T05:18:35;98938.53;;;3.88;100.00
71573;BME280;59408;51.032;9.410;2023-04-07T05:21:01;98936.81;;;3.92;100.00
71573;BME280;59408;51.032;9.410;2023-04-07T05:23:28;98941.13;;;3.93;100.00
71573;BME280;59408;51.032;9.410;2023-04-07T05:25:54;98940.53;;;3.96;100.00
71573;BME280;59408;51.032;9.410;2023-04-07T05:28:23;98941.03;;;3.98;100.00
71573;BME280;59408;51.032;9.410;2023-04-07T05:30:50;98942.66;;;3.99;100.00
71573;BME280;59408;51.032;9.410;2023-04-07T05:33:16;98948.53;;;4.01;100.00
71573;BME280;59408;51.032;9.410;2023-04-07T05:35:43;98951.22;;;4.01;100.00
71573;BME280;59408;51.032;9.410;2023-04-07T05:38:10;98942.34;;;4.01;100.00
71573;BME280;59408;51.032;9.410;2023-04-07T05:40:36;98948.53;;;4.01;100.00
71573;BME280;59408;51.032;9.410;2023-04-07T05:43:03;98945.81;;;4.01;100.00
71573;BME280;59408;51.032;9.410;2023-04-07T05:45:31;98945.81;;;4.01;100.00
71573;BME280;59408;51.032;9.410;2023-04-07T05:47:58;98952.81;;;4.02;100.00
71573;BME280;59408;51.032;9.410;2023-04-07T05:50:24;98947.66;;;4.06;100.00
71573;BME280;59408;51.032;9.410;2023-04-07T05:52:51;98946.63;;;4.02;100.00
71573;BME280;59408;51.032;9.410;2023-04-07T05:55:17;98942.25;;;4.06;100.00
71573;BME280;59408;51.032;9.410;2023-04-07T05:57:44;98946.84;;;4.05;100.00
71573;BME280;59408;51.032;9.410;2023-04-07T06:00:12;98945.34;;;4.13;100.00
71573;BME280;59408;51.032;9.410;2023-04-07T06:02:40;98941.25;;;4.15;100.00
71573;BME280;59408;51.032;9.410;2023-04-07T06:05:07;98947.66;;;4.19;100.00
71573;BME280;59408;51.032;9.410;2023-04-07T06:07:34;98947.34;;;4.21;100.00
71573;BME280;59408;51.032;9.410;2023-04-07T06:10:01;98944.88;;;4.24;100.00
71573;BME280;59408;51.032;9.410;2023-04-07T06:12:28;98946.47;;;4.25;100.00
71573;BME280;59408;51.032;9.410;2023-04-07T06:14:55;98948.25;;;4.30;100.00
71573;BME280;59408;51.032;9.410;2023-04-07T06:17:22;98949.28;;;4.34;100.00
71573;BME280;59408;51.032;9.410;2023-04-07T06:19:50;98949.44;;;4.38;100.00
71573;BME280;59408;51.032;9.410;2023-04-07T06:22:17;98948.28;;;4.44;100.00
71573;BME280;59408;51.032;9.410;2023-04-07T06:24:43;98947.34;;;4.48;100.00
71573;BME280;59408;51.032;9.410;2023-04-07T06:27:10;98948.97;;;4.49;100.00
71573;BME280;59408;51.032;9.410;2023-04-07T06:29:37;98958.06;;;4.53;100.00
71573;BME280;59408;51.032;9.410;2023-04-07T06:32:05;98956.97;;;4.54;100.00
71573;BME280;59408;51.032;9.410;2023-04-07T06:34:31;98956.66;;;4.56;100.00
71573;BME280;59408;51.032;9.410;2023-04-07T06:36:59;98965.88;;;4.55;100.00
71573;BME280;59408;51.032;9.410;2023-04-07T06:39:26;98968.38;;;4.51;100.00
71573;BME280;59408;51.032;9.410;2023-04-07T06:41:53;98966.66;;;4.55;100.00
71573;BME280;59408;51.032;9.410;2023-04-07T06:44:19;98969.34;;;4.55;100.00
71573;BME280;59408;51.032;9.410;2023-04-07T06:46:46;98966.19;;;4.53;100.00
71573;BME280;59408;51.032;9.410;2023-04-07T06:49:13;98963.78;;;4.52;100.00
71573;BME280;59408;51.032;9.410;2023-04-07T06:51:39;98958.66;;;4.50;100.00
71573;BME280;59408;51.032;9.410;2023-04-07T06:54:07;98967.78;;;4.54;100.00
71573;BME280;59408;51.032;9.410;2023-04-07T06:56:34;98961.66;;;4.49;100.00
71573;BME280;59408;51.032;9.410;2023-04-07T06:59:00;98971.06;;;4.51;100.00
71573;BME280;59408;51.032;9.410;2023-04-07T07:01:27;98974.28;;;4.53;100.00
71573;BME280;59408;51.032;9.410;2023-04-07T07:03:54;98977.78;;;4.54;100.00
71573;BME280;59408;51.032;9.410;2023-04-07T07:06:21;98974.47;;;4.57;100.00
71573;BME280;59408;51.032;9.410;2023-04-07T07:08:47;98974.28;;;4.53;100.00
71573;BME280;59408;51.032;9.410;2023-04-07T07:11:15;98979.38;;;4.55;100.00
71573;BME280;59408;51.032;9.410;2023-04-07T07:13:42;98981.16;;;4.59;100.00
71573;BME280;59408;51.032;9.410;2023-04-07T07:16:08;98980.47;;;4.54;100.00
71573;BME280;59408;51.032;9.410;2023-04-07T07:18:35;98991.28;;;4.54;100.00
71573;BME280;59408;51.032;9.410;2023-04-07T07:21:02;98994.78;;;4.54;100.00
71573;BME280;59408;51.032;9.410;2023-04-07T07:23:28;98989.38;;;4.54;100.00
71573;BME280;59408;51.032;9.410;2023-04-07T07:25:55;98986.38;;;4.56;100.00
71573;BME280;59408;51.032;9.410;2023-04-07T07:28:23;98984.28;;;4.53;100.00
71573;BME280;59408;51.032;9.410;2023-04-07T07:30:50;98991.97;;;4.59;100.00
71573;BME280;59408;51.032;9.410;2023-04-07T07:33:16;98993.06;;;4.58;100.00
71573;BME280;59408;51.032;9.410;2023-04-07T07:35:43;99001.19;;;4.58;100.00
71573;BME280;59408;51.032;9.410;2023-04-07T07:38:10;99002.50;;;4.61;100.00
71573;BME280;59408;51.032;9.410;2023-04-07T07:40:36;99003.00;;;4.63;100.00
71573;BME280;59408;51.032;9.410;2023-04-07T07:43:03;98995.19;;;4.61;100.00
71573;BME280;59408;51.032;9.410;2023-04-07T07:45:31;99001.09;;;4.63;100.00
71573;BME280;59408;51.032;9.410;2023-04-07T07:47:58;98999.97;;;4.64;100.00
71573;BME280;59408;51.032;9.410;2023-04-07T07:50:24;99009.69;;;4.65;100.00
71573;BME280;59408;51.032;9.410;2023-04-07T07:52:51;99001.47;;;4.71;100.00
71573;BME280;59408;51.032;9.410;2023-04-07T07:55:17;99020.09;;;4.72;100.00
71573;BME280;59408;51.032;9.410;2023-04-07T07:57:44;99015.97;;;4.75;100.00
71573;BME280;59408;51.032;9.410;2023-04-07T08:00:12;99011.47;;;4.84;100.00
71573;BME280;59408;51.032;9.410;2023-04-07T08:02:40;99019.69;;;4.92;100.00
71573;BME280;59408;51.032;9.410;2023-04-07T08:05:07;99021.59;;;4.92;100.00
71573;BME280;59408;51.032;9.410;2023-04-07T08:07:34;99025.19;;;5.01;100.00
71573;BME280;59408;51.032;9.410;2023-04-07T08:10:00;99024.19;;;5.11;100.00
71573;BME280;59408;51.032;9.410;2023-04-07T08:12:27;99027.88;;;5.15;100.00
71573;BME280;59408;51.032;9.410;2023-04-07T08:14:53;99027.97;;;5.23;100.00
71573;BME280;59408;51.032;9.410;2023-04-07T08:17:20;99036.28;;;5.27;100.00
71573;BME280;59408;51.032;9.410;2023-04-07T08:19:48;99032.56;;;5.36;100.00
71573;BME280;59408;51.032;9.410;2023-04-07T08:22:15;99029.44;;;5.43;100.00
71573;BME280;59408;51.032;9.410;2023-04-07T08:24:41;99039.16;;;5.44;99.78
71573;BME280;59408;51.032;9.410;2023-04-07T08:27:08;99036.38;;;5.35;98.60
71573;BME280;59408;51.032;9.410;2023-04-07T08:29:35;99042.16;;;5.43;99.19
71573;BME280;59408;51.032;9.410;2023-04-07T08:32:01;99041.63;;;5.54;99.30
71573;BME280;59408;51.032;9.410;2023-04-07T08:34:28;99046.13;;;5.59;99.77
71573;BME280;59408;51.032;9.410;2023-04-07T08:36:56;99049.31;;;5.61;98.34
71573;BME280;59408;51.032;9.410;2023-04-07T08:39:23;99048.44;;;5.52;97.39
71573;BME280;59408;51.032;9.410;2023-04-07T08:41:50;99057.53;;;5.56;97.71
71573;BME280;59408;51.032;9.410;2023-04-07T08:44:16;99058.34;;;5.56;97.55
71573;BME280;59408;51.032;9.410;2023-04-07T08:46:46;99044.72;;;5.61;97.87
71573;BME280;59408;51.032;9.410;2023-04-07T08:49:14;99055.41;;;5.66;99.01
71573;BME280;59408;51.032;9.410;2023-04-07T08:51:44;99051.72;;;5.85;98.75
71573;BME280;59408;51.032;9.410;2023-04-07T08:54:14;99055.28;;;5.94;97.07
71573;BME280;59408;51.032;9.410;2023-04-07T08:56:42;99057.69;;;5.95;96.31
71573;BME280;59408;51.032;9.410;2023-04-07T08:59:10;99060.31;;;6.00;96.85
71573;BME280;59408;51.032;9.410;2023-04-07T09:01:38;99048.78;;;5.95;97.71
71573;BME280;59408;51.032;9.410;2023-04-07T09:04:06;99058.50;;;5.73;96.76
71573;BME280;59408;51.032;9.410;2023-04-07T09:06:33;99055.97;;;5.77;96.12
71573;BME280;59408;51.032;9.410;2023-04-07T09:09:01;99052.47;;;5.99;97.11
71573;BME280;59408;51.032;9.410;2023-04-07T09:11:29;99061.63;;;6.11;95.14
71573;BME280;59408;51.032;9.410;2023-04-07T09:13:56;99069.28;;;6.09;92.23
71573;BME280;59408;51.032;9.410;2023-04-07T09:16:22;99069.41;;;6.04;92.26
71573;BME280;59408;51.032;9.410;2023-04-07T09:18:49;99069.75;;;6.11;94.66
71573;BME280;59408;51.032;9.410;2023-04-07T09:21:16;99068.28;;;6.28;94.29
71573;BME280;59408;51.032;9.410;2023-04-07T09:23:42;99076.78;;;6.35;91.90
71573;BME280;59408;51.032;9.410;2023-04-07T09:26:20;99075.16;;;6.34;93.72
71573;BME280;59408;51.032;9.410;2023-04-07T09:28:51;99078.97;;;6.33;92.19
71573;BME280;59408;51.032;9.410;2023-04-07T09:31:18;99078.94;;;6.24;90.12
71573;BME280;59408;51.032;9.410;2023-04-07T09:33:45;99072.84;;;6.19;91.99
71573;BME280;59408;51.032;9.410;2023-04-07T09:36:12;99071.06;;;6.14;93.17
71573;BME280;59408;51.032;9.410;2023-04-07T09:38:40;99072.41;;;6.25;92.77
71573;BME280;59408;51.032;9.410;2023-04-07T09:41:08;99073.75;;;6.36;94.11
71573;BME280;59408;51.032;9.410;2023-04-07T09:43:36;99070.59;;;6.43;92.63
71573;BME280;59408;51.032;9.410;2023-04-07T09:46:10;99075.13;;;6.56;92.38
71573;BME280;59408;51.032;9.410;2023-04-07T09:48:37;99073.84;;;6.54;93.59
71573;BME280;59408;51.032;9.410;2023-04-07T09:51:05;99074.16;;;6.52;91.42
71573;BME280;59408;51.032;9.410;2023-04-07T09:53:43;99071.97;;;6.63;93.03
71573;BME280;59408;51.032;9.410;2023-04-07T09:56:11;99070.41;;;6.70;92.25
71573;BME280;59408;51.032;9.410;2023-04-07T09:58:38;99078.34;;;6.67;91.65
71573;BME280;59408;51.032;9.410;2023-04-07T10:01:07;99069.75;;;6.65;90.80
71573;BME280;59408;51.032;9.410;2023-04-07T10:03:35;99073.31;;;6.74;91.54
71573;BME280;59408;51.032;9.410;2023-04-07T10:06:03;99070.91;;;6.72;91.25
71573;BME280;59408;51.032;9.410;2023-04-07T10:08:31;99073.31;;;6.74;90.41
71573;BME280;59408;51.032;9.410;2023-04-07T10:11:00;99077.28;;;6.76;90.17
71573;BME280;59408;51.032;9.410;2023-04-07T10:13:27;99083.06;;;6.83;88.77
71573;BME280;59408;51.032;9.410;2023-04-07T10:15:54;99070.69;;;7.00;90.56
71573;BME280;59408;51.032;9.410;2023-04-07T10:18:22;99077.56;;;7.06;89.08
71573;BME280;59408;51.032;9.410;2023-04-07T10:20:52;99080.44;;;7.01;86.97
71573;BME280;59408;51.032;9.410;2023-04-07T10:23:25;99071.88;;;7.24;88.29
71573;BME280;59408;51.032;9.410;2023-04-07T10:25:54;99081.69;;;7.43;88.41
71573;BME280;59408;51.032;9.410;2023-04-07T10:28:24;99088.72;;;7.61;87.64
71573;BME280;59408;51.032;9.410;2023-04-07T10:30:51;99087.13;;;7.60;84.93
71573;BME280;59408;51.032;9.410;2023-04-07T10:33:43;99082.38;;;7.83;86.41
71573;BME280;59408;51.032;9.410;2023-04-07T10:36:11;99082.97;;;8.23;85.21
71573;BME280;59408;51.032;9.410;2023-04-07T10:38:38;99082.31;;;8.34;85.05
71573;BME280;59408;51.032;9.410;2023-04-07T10:41:33;99087.53;;;8.57;83.94
71573;BME280;59408;51.032;9.410;2023-04-07T10:44:01;99079.91;;;8.88;83.21
71573;BME280;59408;51.032;9.410;2023-04-07T10:49:38;99074.72;;;9.04;82.10
71573;BME280;59408;51.032;9.410;2023-04-07T10:52:24;99089.88;;;9.13;79.13
71573;BME280;59408;51.032;9.410;2023-04-07T10:58:27;99090.16;;;9.79;77.95
71573;BME280;59408;51.032;9.410;2023-04-07T11:01:19;99084.66;;;10.21;75.70
71573;BME280;59408;51.032;9.410;2023-04-07T11:04:02;99082.47;;;11.05;76.37
71573;BME280;59408;51.032;9.410;2023-04-07T11:06:29;99086.94;;;11.09;75.92
71573;BME280;59408;51.032;9.410;2023-04-07T11:08:57;99071.78;;;11.12;72.10
71573;BME280;59408;51.032;9.410;2023-04-07T11:11:37;99072.69;;;11.04;69.93
71573;BME280;59408;51.032;9.410;2023-04-07T11:14:04;99080.38;;;10.65;71.09
71573;BME280;59408;51.032;9.410;2023-04-07T11:16:37;99074.75;;;10.94;73.31
71573;BME280;59408;51.032;9.410;2023-04-07T11:19:03;99074.88;;;11.10;72.16
71573;BME280;59408;51.032;9.410;2023-04-07T11:21:30;99073.69;;;12.00;69.86
71573;BME280;59408;51.032;9.410;2023-04-07T11:23:58;99079.94;;;12.40;68.04
71573;BME280;59408;51.032;9.410;2023-04-07T11:26:25;99083.47;;;12.41;66.43
71573;BME280;59408;51.032;9.410;2023-04-07T11:28:53;99080.94;;;11.80;66.38
71573;BME280;59408;51.032;9.410;2023-04-07T11:31:20;99077.66;;;11.74;68.69
71573;BME280;59408;51.032;9.410;2023-04-07T11:33:51;99079.72;;;11.53;67.43
71573;BME280;59408;51.032;9.410;2023-04-07T11:36:25;99072.41;;;11.69;69.86
71573;BME280;59408;51.032;9.410;2023-04-07T11:38:52;99082.97;;;11.83;69.46
71573;BME280;59408;51.032;9.410;2023-04-07T11:41:20;99070.66;;;11.89;66.28
71573;BME280;59408;51.032;9.410;2023-04-07T11:43:48;99077.09;;;11.57;64.81
71573;BME280;59408;51.032;9.410;2023-04-07T11:46:17;99079.72;;;11.65;67.94
71573;BME280;59408;51.032;9.410;2023-04-07T11:48:44;99073.22;;;11.70;63.43
71573;BME280;59408;51.032;9.410;2023-04-07T11:51:15;99081.22;;;12.31;64.83
71573;BME280;59408;51.032;9.410;2023-04-07T11:53:42;99077.63;;;12.42;67.37
71573;BME280;59408;51.032;9.410;2023-04-07T11:56:12;99074.84;;;12.55;65.87
71573;BME280;59408;51.032;9.410;2023-04-07T11:58:45;99080.66;;;12.53;66.22
71573;BME280;59408;51.032;9.410;2023-04-07T12:01:12;99071.25;;;12.38;62.84
71573;BME280;59408;51.032;9.410;2023-04-07T12:03:54;99070.34;;;11.79;64.14
71573;BME280;59408;51.032;9.410;2023-04-07T12:06:26;99073.00;;;12.03;66.48
71573;BME280;59408;51.032;9.410;2023-04-07T12:08:52;99072.06;;;11.83;64.91
71573;BME280;59408;51.032;9.410;2023-04-07T12:11:19;99073.22;;;11.58;65.62
71573;BME280;59408;51.032;9.410;2023-04-07T12:13:47;99069.06;;;11.12;64.38
71573;BME280;59408;51.032;9.410;2023-04-07T12:16:14;99061.06;;;11.55;66.08
71573;BME280;59408;51.032;9.410;2023-04-07T12:18:41;99060.06;;;11.11;64.08
71573;BME280;59408;51.032;9.410;2023-04-07T12:21:07;99063.75;;;11.80;63.42
71573;BME280;59408;51.032;9.410;2023-04-07T12:23:34;99066.19;;;12.53;62.82
71573;BME280;59408;51.032;9.410;2023-04-07T12:26:00;99061.69;;;13.23;60.57
71573;BME280;59408;51.032;9.410;2023-04-07T12:28:27;99060.88;;;13.38;61.90
71573;BME280;59408;51.032;9.410;2023-04-07T12:30:55;99054.84;;;13.64;58.40
71573;BME280;59408;51.032;9.410;2023-04-07T12:33:22;99062.72;;;13.50;59.56
71573;BME280;59408;51.032;9.410;2023-04-07T12:35:49;99053.66;;;13.14;58.65
71573;BME280;59408;51.032;9.410;2023-04-07T12:38:15;99057.03;;;12.92;60.73
71573;BME280;59408;51.032;9.410;2023-04-07T12:40:42;99064.19;;;12.81;60.63
71573;BME280;59408;51.032;9.410;2023-04-07T12:43:09;99059.13;;;12.67;63.27
71573;BME280;59408;51.032;9.410;2023-04-07T12:45:35;99065.88;;;13.01;62.46
71573;BME280;59408;51.032;9.410;2023-04-07T12:48:04;99060.50;;;14.10;61.57
71573;BME280;59408;51.032;9.410;2023-04-07T12:50:31;99057.97;;;14.85;55.72
71573;BME280;59408;51.032;9.410;2023-04-07T12:52:58;99053.34;;;14.66;53.93
71573;BME280;59408;51.032;9.410;2023-04-07T12:55:24;99054.69;;;14.99;54.49
71573;BME280;59408;51.032;9.410;2023-04-07T12:57:51;99051.44;;;14.93;55.19
71573;BME280;59408;51.032;9.410;2023-04-07T13:00:18;99058.31;;;14.19;53.43
71573;BME280;59408;51.032;9.410;2023-04-07T13:02:45;99058.41;;;13.49;54.86
71573;BME280;59408;51.032;9.410;2023-04-07T13:05:13;99061.97;;;12.86;56.19
71573;BME280;59408;51.032;9.410;2023-04-07T13:07:39;99060.56;;;12.77;56.51
71573;BME280;59408;51.032;9.410;2023-04-07T13:10:07;99053.81;;;12.43;57.78
71573;BME280;59408;51.032;9.410;2023-04-07T13:12:34;99052.75;;;12.47;58.60